Portada
METAR-TAF:

METAR-TAF

Aeroports :

Agartala, Índia

latitud: 23-53-24N, longitud: 91-14-32E, altitud: 14 m

Observació

L'informe es va fer fa 11 hores i 10 minuts, a les 13:00 UTC
Vent 3 kt del Sud
Temperatura 27°C
Humitat 89%
Pressió 1006 hPa
Visibilitat: 5000 m
Núvols disperses a una alçada de 1600 ft
Cel ennuvolat a una alçada de 10000 ft
boirina

METAR: VEAT 241300Z 17003KT 5000 BR SCT016 BKN100 27/25 Q1006 NOSIG

Hora: 05:40 (00:10 UTC)

Pronòstic

L'informe es va fer fa 1 hora i 10 minuts, a les 23:00 UTC
Pronòstic vàlid del 25 a les 00 UTC al 25 a les 09 UTC
Vent kt del Nord
Visibilitat: 3000 m
Escasses núvols a una alçada de 1000 ft
Cel ennuvolat a una alçada de 10000 ft
pluja, boirina
Evolucionant progressivament
l' 25 a les 03 UTC al 25 a les 06 UTC
Visibilitat: 5000 m
boirina, calitja

TAF: VEAT 242300Z 2500/2509 00000KT 3000 -RA BR FEW010 SCT18 BKN100 BECMG 2503/2506 5000 BR HZ

Observacions i pronòstics meteorològics de més de 4000 aeroports (METAR i TAF).

Les estacions disponibles són els punts grocs i vermells al mapa.

Posi el ratolí al punt desitjat per veure el nom de l'estació.

Feu clic per veure les observacions i els pronòstics meteorològics.

Per canviar el mapa: feu clic els botons verds amb una creu de color negre per apropar; al botó verd amb un guió per allunyar la imatge; o en les fletxes verdes per a mapes adjacents.


METAR-TAF: